createdAt,value
2022-10-31T00:01:35.450Z,13.78
2022-10-31T00:04:03.130Z,13.66
2022-10-31T00:06:33.458Z,13.56
2022-10-31T00:09:03.245Z,13.76
2022-10-31T00:11:31.425Z,13.78
2022-10-31T00:14:00.231Z,13.53
2022-10-31T00:16:29.024Z,13.94
2022-10-31T00:18:59.029Z,13.69
2022-10-31T00:21:27.420Z,13.62
2022-10-31T00:23:57.529Z,13.67
2022-10-31T00:26:25.186Z,13.63
2022-10-31T00:28:52.727Z,13.96
2022-10-31T00:31:20.393Z,13.68
2022-10-31T00:33:48.003Z,13.89
2022-10-31T00:36:20.187Z,13.69
2022-10-31T00:38:48.584Z,13.84
2022-10-31T00:41:17.951Z,13.71
2022-10-31T00:43:45.767Z,13.60
2022-10-31T00:46:14.231Z,13.51
2022-10-31T00:48:42.607Z,13.74
2022-10-31T00:51:10.965Z,12.97
2022-10-31T00:53:38.516Z,13.08
2022-10-31T00:56:06.939Z,13.24
2022-10-31T00:58:34.573Z,13.06
2022-10-31T01:01:02.949Z,13.40
2022-10-31T01:03:33.357Z,13.51
2022-10-31T01:06:06.823Z,13.10
2022-10-31T01:08:36.143Z,13.31
2022-10-31T01:11:15.378Z,13.46
2022-10-31T01:13:43.486Z,13.44
2022-10-31T01:16:14.253Z,13.26
2022-10-31T01:18:42.135Z,12.35
2022-10-31T01:21:11.641Z,12.77
2022-10-31T01:23:39.293Z,12.87
2022-10-31T01:26:08.687Z,12.97
2022-10-31T01:28:40.299Z,13.20
2022-10-31T01:31:09.797Z,13.50
2022-10-31T01:33:38.213Z,13.49
2022-10-31T01:36:20.739Z,13.59
2022-10-31T01:38:53.988Z,13.29
2022-10-31T01:41:24.698Z,13.53
2022-10-31T01:44:23.437Z,13.73
2022-10-31T01:47:06.754Z,13.38
2022-10-31T01:49:58.677Z,13.06
2022-10-31T01:52:32.150Z,13.24
2022-10-31T01:55:26.415Z,13.10
2022-10-31T01:58:03.489Z,13.29
2022-10-31T02:00:31.480Z,13.49
2022-10-31T02:03:00.813Z,13.31
2022-10-31T02:05:31.277Z,13.40
2022-10-31T02:08:21.295Z,13.50
2022-10-31T02:10:51.254Z,13.33
2022-10-31T02:13:20.944Z,13.27
2022-10-31T02:15:53.825Z,13.39
2022-10-31T02:18:23.962Z,13.13
2022-10-31T02:21:14.572Z,13.30
2022-10-31T02:24:11.348Z,13.40
2022-10-31T02:26:57.375Z,13.32
2022-10-31T02:29:42.994Z,13.25
2022-10-31T02:32:28.620Z,13.16
2022-10-31T02:35:09.132Z,13.19
2022-10-31T02:37:47.457Z,13.37
2022-10-31T02:40:29.545Z,13.22
2022-10-31T02:43:20.683Z,13.10
2022-10-31T02:45:54.384Z,13.19
2022-10-31T02:48:27.997Z,13.04
2022-10-31T02:51:05.986Z,13.07
2022-10-31T02:53:35.333Z,13.29
2022-10-31T02:56:14.014Z,13.11
2022-10-31T02:58:57.960Z,13.23
2022-10-31T03:01:28.690Z,12.97
2022-10-31T03:04:15.198Z,13.07
2022-10-31T03:06:54.261Z,12.93
2022-10-31T03:09:34.452Z,13.28
2022-10-31T03:12:07.995Z,13.04
2022-10-31T03:15:04.872Z,12.94
2022-10-31T03:17:41.036Z,13.00
2022-10-31T03:20:11.525Z,13.02
2022-10-31T03:22:41.808Z,13.00
2022-10-31T03:25:10.752Z,13.09
2022-10-31T03:27:40.238Z,13.40
2022-10-31T03:30:09.423Z,13.39
2022-10-31T03:32:55.373Z,13.43
2022-10-31T03:35:25.723Z,13.43
2022-10-31T03:37:55.775Z,13.52
2022-10-31T03:40:27.922Z,13.54
2022-10-31T03:43:01.923Z,13.51
2022-10-31T03:45:31.857Z,13.48
2022-10-31T03:48:00.977Z,13.12
2022-10-31T03:50:39.487Z,12.77
2022-10-31T03:53:20.733Z,12.85
2022-10-31T03:56:25.589Z,13.17
2022-10-31T03:59:23.815Z,12.86
2022-10-31T04:01:56.477Z,12.74
2022-10-31T04:04:24.957Z,12.97
2022-10-31T04:06:54.352Z,13.05
2022-10-31T04:09:23.080Z,13.26
2022-10-31T04:11:54.902Z,13.05
2022-10-31T04:14:51.516Z,13.31
2022-10-31T04:17:22.745Z,13.27
2022-10-31T04:19:51.268Z,13.36
2022-10-31T04:22:23.424Z,13.37
2022-10-31T04:24:50.925Z,13.42
2022-10-31T04:27:19.333Z,13.22
2022-10-31T04:29:49.851Z,13.42
2022-10-31T04:32:18.780Z,13.58
2022-10-31T04:34:46.299Z,13.23
2022-10-31T04:37:13.814Z,13.02
2022-10-31T04:39:41.411Z,12.96
2022-10-31T04:42:35.226Z,13.12
2022-10-31T04:45:05.433Z,13.19
2022-10-31T04:47:34.927Z,12.77
2022-10-31T04:50:04.976Z,12.16
2022-10-31T04:52:39.314Z,12.19
2022-10-31T04:55:07.409Z,12.87
2022-10-31T04:57:55.239Z,12.91
2022-10-31T05:00:25.488Z,13.21
2022-10-31T05:02:55.569Z,13.13
2022-10-31T05:05:29.516Z,13.25
2022-10-31T05:07:57.526Z,13.22
2022-10-31T05:10:29.357Z,13.05
2022-10-31T05:13:02.603Z,13.18
2022-10-31T05:15:50.487Z,13.14
2022-10-31T05:18:53.021Z,12.79
2022-10-31T05:21:58.790Z,12.71
2022-10-31T05:24:26.485Z,12.69
2022-10-31T05:26:54.044Z,12.63
2022-10-31T05:29:21.569Z,12.32
2022-10-31T05:31:49.234Z,12.66
2022-10-31T05:34:36.615Z,13.07
2022-10-31T05:37:16.598Z,12.83
2022-10-31T05:39:44.691Z,12.71
2022-10-31T05:42:16.119Z,13.11
2022-10-31T05:44:43.674Z,13.29
2022-10-31T05:47:39.499Z,12.23
2022-10-31T05:50:29.025Z,12.53
2022-10-31T05:53:09.070Z,12.97
2022-10-31T05:55:38.891Z,12.61
2022-10-31T05:58:12.316Z,13.07
2022-10-31T06:00:42.541Z,13.03
2022-10-31T06:03:11.645Z,12.89
2022-10-31T06:05:54.138Z,13.05
2022-10-31T06:08:25.385Z,12.92
2022-10-31T06:10:54.769Z,12.82
2022-10-31T06:13:34.572Z,13.35
2022-10-31T06:16:13.977Z,13.33
2022-10-31T06:18:41.621Z,13.27
2022-10-31T06:21:09.616Z,13.31
2022-10-31T06:23:38.614Z,13.23
2022-10-31T06:26:26.246Z,13.22
2022-10-31T06:28:54.167Z,13.19
2022-10-31T06:31:37.255Z,13.27
2022-10-31T06:34:04.796Z,13.43
2022-10-31T06:36:32.250Z,13.37
2022-10-31T06:39:01.484Z,13.74
2022-10-31T06:41:29.042Z,13.53
2022-10-31T06:43:57.837Z,13.61
2022-10-31T06:46:54.952Z,13.26
2022-10-31T06:49:47.910Z,13.74
2022-10-31T06:52:18.328Z,13.00
2022-10-31T06:54:45.879Z,13.53
2022-10-31T06:57:15.103Z,13.66
2022-10-31T06:59:43.035Z,13.86
2022-10-31T07:02:32.000Z,13.37
2022-10-31T07:04:59.697Z,13.74
2022-10-31T07:07:27.208Z,13.81
2022-10-31T07:09:55.092Z,13.55
2022-10-31T07:12:36.997Z,13.61
2022-10-31T07:15:05.584Z,13.85
2022-10-31T07:17:33.856Z,13.79
2022-10-31T07:20:02.129Z,13.60
2022-10-31T07:22:36.047Z,13.48
2022-10-31T07:25:05.818Z,13.77
2022-10-31T07:27:52.065Z,13.71
2022-10-31T07:30:20.724Z,13.90
2022-10-31T07:32:51.758Z,13.90
2022-10-31T07:35:29.923Z,13.96
2022-10-31T07:38:07.097Z,13.88
2022-10-31T07:40:36.641Z,13.58
2022-10-31T07:43:04.357Z,13.78
2022-10-31T07:45:54.554Z,13.62
2022-10-31T07:48:57.283Z,13.89
2022-10-31T07:51:46.361Z,13.62
2022-10-31T07:54:49.253Z,13.97
2022-10-31T07:57:25.101Z,13.88
2022-10-31T07:59:52.877Z,13.81
2022-10-31T08:02:20.625Z,13.80
2022-10-31T08:04:48.242Z,14.17
2022-10-31T08:07:41.597Z,14.27
2022-10-31T08:10:18.916Z,13.64
2022-10-31T08:12:46.530Z,13.99
2022-10-31T08:15:14.451Z,13.84
2022-10-31T08:17:42.078Z,14.13
2022-10-31T08:20:11.831Z,13.57
2022-10-31T08:22:57.366Z,13.68
2022-10-31T08:25:26.098Z,14.09
2022-10-31T08:27:55.397Z,14.46
2022-10-31T08:30:25.675Z,14.20
2022-10-31T08:33:16.256Z,14.40
2022-10-31T08:36:18.730Z,14.49
2022-10-31T08:39:01.452Z,14.19
2022-10-31T08:41:31.183Z,14.60
2022-10-31T08:44:00.257Z,14.64
2022-10-31T08:46:27.852Z,14.60
2022-10-31T08:48:56.271Z,14.51
2022-10-31T08:51:24.729Z,14.60
2022-10-31T08:53:55.320Z,14.94
2022-10-31T08:56:34.864Z,14.86
2022-10-31T08:59:05.404Z,14.75
2022-10-31T09:02:02.113Z,14.81
2022-10-31T09:04:30.478Z,14.92
2022-10-31T09:09:45.720Z,14.41
2022-10-31T09:12:13.802Z,14.58
2022-10-31T09:15:01.812Z,14.74
2022-10-31T09:17:52.867Z,14.75
2022-10-31T09:20:33.832Z,15.21
2022-10-31T09:23:07.391Z,14.95
2022-10-31T09:25:38.299Z,15.19
2022-10-31T09:28:25.874Z,14.62
2022-10-31T09:30:55.434Z,14.75
2022-10-31T09:34:00.459Z,14.14
2022-10-31T09:36:39.053Z,13.97
2022-10-31T09:39:15.706Z,14.81
2022-10-31T09:42:15.479Z,15.15
2022-10-31T09:44:59.325Z,15.14
2022-10-31T09:47:54.204Z,15.34
2022-10-31T09:50:54.186Z,15.13
2022-10-31T09:54:07.857Z,14.23
2022-10-31T09:56:36.554Z,14.88
2022-10-31T09:59:10.124Z,14.53
2022-10-31T10:01:50.004Z,14.55
2022-10-31T10:04:42.221Z,15.04
2022-10-31T10:07:24.298Z,15.37
2022-10-31T10:10:39.563Z,15.06
2022-10-31T10:13:51.934Z,14.56
2022-10-31T10:16:48.332Z,14.75
2022-10-31T10:19:43.882Z,15.20
2022-10-31T10:22:30.276Z,14.63
2022-10-31T10:25:15.887Z,14.72
2022-10-31T10:28:22.346Z,14.89
2022-10-31T10:30:56.637Z,15.00
2022-10-31T10:33:56.143Z,15.17
2022-10-31T10:36:38.884Z,15.02
2022-10-31T10:39:16.976Z,15.29
2022-10-31T10:42:08.898Z,15.27
2022-10-31T10:45:02.845Z,15.43
2022-10-31T10:47:39.979Z,15.28
2022-10-31T10:50:19.106Z,15.19
2022-10-31T10:53:22.392Z,15.22
2022-10-31T10:56:01.809Z,15.16
2022-10-31T10:58:29.308Z,15.13
2022-10-31T11:00:57.146Z,15.25
2022-10-31T11:03:24.754Z,15.23
2022-10-31T11:06:02.839Z,15.15
2022-10-31T11:08:36.385Z,15.06
2022-10-31T11:11:19.159Z,15.14
2022-10-31T11:13:59.042Z,15.07
2022-10-31T11:16:40.985Z,14.91
2022-10-31T11:19:18.015Z,14.87
2022-10-31T11:21:51.222Z,14.38
2022-10-31T11:24:24.644Z,14.46
2022-10-31T11:26:52.857Z,14.34
2022-10-31T11:29:25.994Z,14.39
2022-10-31T11:31:57.849Z,14.84
2022-10-31T11:34:34.567Z,13.93
2022-10-31T11:37:18.270Z,13.95
2022-10-31T11:40:07.541Z,14.34
2022-10-31T11:42:43.606Z,14.40
2022-10-31T11:45:32.494Z,14.40
2022-10-31T11:48:17.992Z,14.69
2022-10-31T11:50:59.197Z,14.68
2022-10-31T11:53:30.760Z,14.46
2022-10-31T11:56:17.670Z,14.29
2022-10-31T11:58:57.002Z,14.34
2022-10-31T12:01:29.539Z,14.45
2022-10-31T12:04:13.463Z,14.25
2022-10-31T12:06:43.597Z,13.84
2022-10-31T12:09:24.456Z,14.19
2022-10-31T12:12:10.483Z,14.23
2022-10-31T12:15:13.034Z,14.61
2022-10-31T12:17:49.566Z,14.62
2022-10-31T12:20:42.028Z,14.51
